sensor_id;sensor_type;location;lat;lon;timestamp;temperature;humidity
25360;DHT22;13311;51.386;0.016;2022-12-28T00:02:39;12.00;99.90
25360;DHT22;13311;51.386;0.016;2022-12-28T00:07:41;12.10;99.90
25360;DHT22;13311;51.386;0.016;2022-12-28T00:12:43;12.20;99.90
25360;DHT22;13311;51.386;0.016;2022-12-28T00:17:44;12.10;99.90
25360;DHT22;13311;51.386;0.016;2022-12-28T00:22:44;12.20;99.90
25360;DHT22;13311;51.386;0.016;2022-12-28T00:27:45;12.30;99.90
25360;DHT22;13311;51.386;0.016;2022-12-28T00:32:46;12.20;99.90
25360;DHT22;13311;51.386;0.016;2022-12-28T00:37:46;12.30;99.90
25360;DHT22;13311;51.386;0.016;2022-12-28T00:42:47;12.40;99.90
25360;DHT22;13311;51.386;0.016;2022-12-28T00:47:48;12.60;99.90
25360;DHT22;13311;51.386;0.016;2022-12-28T00:52:49;12.60;99.90
25360;DHT22;13311;51.386;0.016;2022-12-28T00:57:50;12.60;99.90
25360;DHT22;13311;51.386;0.016;2022-12-28T01:02:50;12.70;99.90
25360;DHT22;13311;51.386;0.016;2022-12-28T01:07:52;12.60;99.90
25360;DHT22;13311;51.386;0.016;2022-12-28T01:12:55;12.70;99.90
25360;DHT22;13311;51.386;0.016;2022-12-28T01:17:56;12.80;99.90
25360;DHT22;13311;51.386;0.016;2022-12-28T01:22:57;12.70;99.90
25360;DHT22;13311;51.386;0.016;2022-12-28T01:27:58;12.80;99.90
25360;DHT22;13311;51.386;0.016;2022-12-28T01:32:58;12.90;99.90
25360;DHT22;13311;51.386;0.016;2022-12-28T01:37:59;12.90;99.90
25360;DHT22;13311;51.386;0.016;2022-12-28T01:43:00;13.00;99.90
25360;DHT22;13311;51.386;0.016;2022-12-28T01:48:01;13.10;99.90
25360;DHT22;13311;51.386;0.016;2022-12-28T01:53:03;13.10;99.90
25360;DHT22;13311;51.386;0.016;2022-12-28T01:58:10;13.20;99.90
25360;DHT22;13311;51.386;0.016;2022-12-28T02:03:26;13.20;99.90
25360;DHT22;13311;51.386;0.016;2022-12-28T02:08:40;13.20;99.90
25360;DHT22;13311;51.386;0.016;2022-12-28T02:13:47;13.20;99.90
25360;DHT22;13311;51.386;0.016;2022-12-28T02:18:49;13.30;99.90
25360;DHT22;13311;51.386;0.016;2022-12-28T02:24:27;13.30;99.90
25360;DHT22;13311;51.386;0.016;2022-12-28T02:41:14;13.40;99.90
25360;DHT22;13311;51.386;0.016;2022-12-28T02:46:27;13.40;99.90
25360;DHT22;13311;51.386;0.016;2022-12-28T02:51:58;13.50;99.90
25360;DHT22;13311;51.386;0.016;2022-12-28T03:07:51;13.50;99.90
25360;DHT22;13311;51.386;0.016;2022-12-28T03:13:25;13.60;99.90
25360;DHT22;13311;51.386;0.016;2022-12-28T03:18:46;13.60;99.90
25360;DHT22;13311;51.386;0.016;2022-12-28T03:24:11;13.60;99.90
25360;DHT22;13311;51.386;0.016;2022-12-28T03:29:38;13.60;99.90
25360;DHT22;13311;51.386;0.016;2022-12-28T03:35:00;13.60;99.90
25360;DHT22;13311;51.386;0.016;2022-12-28T03:45:49;13.60;99.90
25360;DHT22;13311;51.386;0.016;2022-12-28T03:50:54;13.60;99.90
25360;DHT22;13311;51.386;0.016;2022-12-28T03:56:09;13.60;99.90
25360;DHT22;13311;51.386;0.016;2022-12-28T04:01:12;13.60;99.90
25360;DHT22;13311;51.386;0.016;2022-12-28T04:06:15;13.70;99.90
25360;DHT22;13311;51.386;0.016;2022-12-28T04:11:17;13.70;99.90
25360;DHT22;13311;51.386;0.016;2022-12-28T04:16:18;13.70;99.90
25360;DHT22;13311;51.386;0.016;2022-12-28T04:21:20;13.60;99.90
25360;DHT22;13311;51.386;0.016;2022-12-28T04:26:20;13.80;99.90
25360;DHT22;13311;51.386;0.016;2022-12-28T04:31:21;13.80;99.90
25360;DHT22;13311;51.386;0.016;2022-12-28T04:36:23;13.70;99.90
25360;DHT22;13311;51.386;0.016;2022-12-28T04:41:24;13.70;99.90
25360;DHT22;13311;51.386;0.016;2022-12-28T04:46:26;13.70;99.90
25360;DHT22;13311;51.386;0.016;2022-12-28T04:51:27;13.70;99.90
25360;DHT22;13311;51.386;0.016;2022-12-28T04:56:29;13.70;99.90
25360;DHT22;13311;51.386;0.016;2022-12-28T05:01:29;13.60;99.90
25360;DHT22;13311;51.386;0.016;2022-12-28T05:06:30;13.60;99.90
25360;DHT22;13311;51.386;0.016;2022-12-28T05:11:31;13.60;99.90
25360;DHT22;13311;51.386;0.016;2022-12-28T05:16:31;13.50;99.90
25360;DHT22;13311;51.386;0.016;2022-12-28T05:21:32;13.40;99.90
25360;DHT22;13311;51.386;0.016;2022-12-28T05:26:33;13.40;99.90
25360;DHT22;13311;51.386;0.016;2022-12-28T05:31:35;13.40;99.90
25360;DHT22;13311;51.386;0.016;2022-12-28T05:36:35;13.40;99.90
25360;DHT22;13311;51.386;0.016;2022-12-28T05:41:38;13.50;99.90
25360;DHT22;13311;51.386;0.016;2022-12-28T05:46:39;13.50;99.90
25360;DHT22;13311;51.386;0.016;2022-12-28T05:51:39;13.40;99.90
25360;DHT22;13311;51.386;0.016;2022-12-28T05:56:40;13.40;99.90
25360;DHT22;13311;51.386;0.016;2022-12-28T06:01:43;13.50;99.90
25360;DHT22;13311;51.386;0.016;2022-12-28T06:06:45;13.40;99.90
25360;DHT22;13311;51.386;0.016;2022-12-28T06:11:46;13.30;99.90
25360;DHT22;13311;51.386;0.016;2022-12-28T06:16:47;13.30;99.90
25360;DHT22;13311;51.386;0.016;2022-12-28T06:21:49;13.40;99.90
25360;DHT22;13311;51.386;0.016;2022-12-28T06:26:50;13.40;99.90
25360;DHT22;13311;51.386;0.016;2022-12-28T06:31:50;13.40;99.90
25360;DHT22;13311;51.386;0.016;2022-12-28T06:36:53;13.30;99.90
25360;DHT22;13311;51.386;0.016;2022-12-28T06:41:55;13.40;99.90
25360;DHT22;13311;51.386;0.016;2022-12-28T06:46:56;13.30;99.90
25360;DHT22;13311;51.386;0.016;2022-12-28T06:51:57;13.40;99.90
25360;DHT22;13311;51.386;0.016;2022-12-28T06:56:58;13.30;99.90
25360;DHT22;13311;51.386;0.016;2022-12-28T07:01:58;13.30;99.90
25360;DHT22;13311;51.386;0.016;2022-12-28T07:06:59;13.20;99.90
25360;DHT22;13311;51.386;0.016;2022-12-28T07:12:00;13.30;99.90
25360;DHT22;13311;51.386;0.016;2022-12-28T07:17:03;13.20;99.90
25360;DHT22;13311;51.386;0.016;2022-12-28T07:22:04;13.10;99.90
25360;DHT22;13311;51.386;0.016;2022-12-28T07:27:05;13.20;99.90
25360;DHT22;13311;51.386;0.016;2022-12-28T07:32:05;13.20;99.90
25360;DHT22;13311;51.386;0.016;2022-12-28T07:37:06;13.20;99.90
25360;DHT22;13311;51.386;0.016;2022-12-28T07:42:09;13.10;99.90
25360;DHT22;13311;51.386;0.016;2022-12-28T07:47:10;13.20;99.90
25360;DHT22;13311;51.386;0.016;2022-12-28T07:52:11;13.20;99.90
25360;DHT22;13311;51.386;0.016;2022-12-28T07:57:12;13.00;99.90
25360;DHT22;13311;51.386;0.016;2022-12-28T08:02:12;13.00;99.90
25360;DHT22;13311;51.386;0.016;2022-12-28T08:07:13;13.00;99.90
25360;DHT22;13311;51.386;0.016;2022-12-28T08:12:14;12.90;99.90
25360;DHT22;13311;51.386;0.016;2022-12-28T08:17:15;12.90;99.90
25360;DHT22;13311;51.386;0.016;2022-12-28T08:22:15;13.00;99.90
25360;DHT22;13311;51.386;0.016;2022-12-28T08:27:16;13.00;99.90
25360;DHT22;13311;51.386;0.016;2022-12-28T08:32:18;12.90;99.90
25360;DHT22;13311;51.386;0.016;2022-12-28T08:37:19;12.80;99.90
25360;DHT22;13311;51.386;0.016;2022-12-28T08:42:20;12.90;99.90
25360;DHT22;13311;51.386;0.016;2022-12-28T08:47:21;13.00;99.90
25360;DHT22;13311;51.386;0.016;2022-12-28T08:52:22;13.00;99.90
25360;DHT22;13311;51.386;0.016;2022-12-28T08:57:25;13.00;99.90
25360;DHT22;13311;51.386;0.016;2022-12-28T09:02:25;13.00;99.90
25360;DHT22;13311;51.386;0.016;2022-12-28T09:07:27;13.10;99.90
25360;DHT22;13311;51.386;0.016;2022-12-28T09:12:28;13.00;99.90
25360;DHT22;13311;51.386;0.016;2022-12-28T09:17:29;12.90;99.90
25360;DHT22;13311;51.386;0.016;2022-12-28T09:22:30;12.80;99.90
25360;DHT22;13311;51.386;0.016;2022-12-28T09:27:31;12.80;99.90
25360;DHT22;13311;51.386;0.016;2022-12-28T09:32:32;12.70;99.90
25360;DHT22;13311;51.386;0.016;2022-12-28T09:37:32;12.90;99.90
25360;DHT22;13311;51.386;0.016;2022-12-28T09:42:37;12.80;99.90
25360;DHT22;13311;51.386;0.016;2022-12-28T09:47:44;12.80;99.90
25360;DHT22;13311;51.386;0.016;2022-12-28T09:53:22;12.80;99.90
25360;DHT22;13311;51.386;0.016;2022-12-28T09:58:28;12.90;99.90
25360;DHT22;13311;51.386;0.016;2022-12-28T10:03:37;13.00;99.90
25360;DHT22;13311;51.386;0.016;2022-12-28T10:08:48;13.00;99.90
25360;DHT22;13311;51.386;0.016;2022-12-28T10:13:57;12.80;99.90
25360;DHT22;13311;51.386;0.016;2022-12-28T10:18:59;12.60;99.90
25360;DHT22;13311;51.386;0.016;2022-12-28T10:24:05;12.60;99.90
25360;DHT22;13311;51.386;0.016;2022-12-28T10:29:12;12.70;99.90
25360;DHT22;13311;51.386;0.016;2022-12-28T10:34:19;12.70;99.90
25360;DHT22;13311;51.386;0.016;2022-12-28T10:39:27;12.60;99.90
25360;DHT22;13311;51.386;0.016;2022-12-28T10:44:34;12.40;99.90
25360;DHT22;13311;51.386;0.016;2022-12-28T10:49:36;12.30;99.90
25360;DHT22;13311;51.386;0.016;2022-12-28T10:54:37;12.50;99.90
25360;DHT22;13311;51.386;0.016;2022-12-28T10:59:40;12.50;99.90
25360;DHT22;13311;51.386;0.016;2022-12-28T11:05:00;12.40;99.90
25360;DHT22;13311;51.386;0.016;2022-12-28T11:10:25;12.40;99.90
25360;DHT22;13311;51.386;0.016;2022-12-28T11:15:31;12.40;99.90
25360;DHT22;13311;51.386;0.016;2022-12-28T11:20:37;12.60;99.90
25360;DHT22;13311;51.386;0.016;2022-12-28T11:25:40;12.50;99.90
25360;DHT22;13311;51.386;0.016;2022-12-28T11:30:42;12.30;99.90
25360;DHT22;13311;51.386;0.016;2022-12-28T11:35:43;12.40;99.90
25360;DHT22;13311;51.386;0.016;2022-12-28T11:40:49;12.30;99.90
25360;DHT22;13311;51.386;0.016;2022-12-28T11:46:02;12.10;99.90
25360;DHT22;13311;51.386;0.016;2022-12-28T11:51:04;12.20;99.90
25360;DHT22;13311;51.386;0.016;2022-12-28T11:56:08;12.20;99.90
25360;DHT22;13311;51.386;0.016;2022-12-28T12:01:39;12.10;99.90
25360;DHT22;13311;51.386;0.016;2022-12-28T12:11:45;12.00;99.90
25360;DHT22;13311;51.386;0.016;2022-12-28T12:16:56;12.00;99.90
25360;DHT22;13311;51.386;0.016;2022-12-28T12:22:15;12.10;99.90
25360;DHT22;13311;51.386;0.016;2022-12-28T12:32:42;12.00;99.90
25360;DHT22;13311;51.386;0.016;2022-12-28T12:43:42;12.00;99.90
25360;DHT22;13311;51.386;0.016;2022-12-28T13:01:01;12.00;99.90
25360;DHT22;13311;51.386;0.016;2022-12-28T13:06:07;12.00;99.90
25360;DHT22;13311;51.386;0.016;2022-12-28T13:11:14;12.10;99.90
25360;DHT22;13311;51.386;0.016;2022-12-28T13:16:24;12.00;99.90
25360;DHT22;13311;51.386;0.016;2022-12-28T13:21:38;12.00;99.90
25360;DHT22;13311;51.386;0.016;2022-12-28T13:26:41;12.10;99.90
25360;DHT22;13311;51.386;0.016;2022-12-28T13:31:42;12.10;99.90
25360;DHT22;13311;51.386;0.016;2022-12-28T13:36:50;12.00;99.90
25360;DHT22;13311;51.386;0.016;2022-12-28T13:41:57;12.00;99.90
25360;DHT22;13311;51.386;0.016;2022-12-28T13:47:03;12.10;99.90
25360;DHT22;13311;51.386;0.016;2022-12-28T13:52:29;12.10;99.90
25360;DHT22;13311;51.386;0.016;2022-12-28T13:57:35;12.10;99.90
25360;DHT22;13311;51.386;0.016;2022-12-28T14:02:40;12.10;99.90
25360;DHT22;13311;51.386;0.016;2022-12-28T14:07:41;12.10;99.90
25360;DHT22;13311;51.386;0.016;2022-12-28T14:12:43;12.10;99.90
25360;DHT22;13311;51.386;0.016;2022-12-28T14:17:46;12.20;99.90
25360;DHT22;13311;51.386;0.016;2022-12-28T14:22:48;12.40;99.90
25360;DHT22;13311;51.386;0.016;2022-12-28T14:27:56;12.40;99.90
25360;DHT22;13311;51.386;0.016;2022-12-28T14:33:08;12.50;99.90
25360;DHT22;13311;51.386;0.016;2022-12-28T14:38:16;12.60;99.90
25360;DHT22;13311;51.386;0.016;2022-12-28T14:43:27;12.70;99.90
25360;DHT22;13311;51.386;0.016;2022-12-28T14:53:32;12.80;99.90
25360;DHT22;13311;51.386;0.016;2022-12-28T14:58:46;12.70;99.90
25360;DHT22;13311;51.386;0.016;2022-12-28T15:04:00;12.80;99.90
25360;DHT22;13311;51.386;0.016;2022-12-28T15:09:02;12.90;99.90
25360;DHT22;13311;51.386;0.016;2022-12-28T15:14:05;12.90;99.90
25360;DHT22;13311;51.386;0.016;2022-12-28T15:19:06;12.90;99.90
25360;DHT22;13311;51.386;0.016;2022-12-28T15:24:10;13.00;99.90
25360;DHT22;13311;51.386;0.016;2022-12-28T15:29:10;13.10;99.90
25360;DHT22;13311;51.386;0.016;2022-12-28T15:34:11;13.20;99.90
25360;DHT22;13311;51.386;0.016;2022-12-28T15:39:13;13.30;99.90
25360;DHT22;13311;51.386;0.016;2022-12-28T15:44:16;13.30;99.90
25360;DHT22;13311;51.386;0.016;2022-12-28T15:49:18;13.30;99.90
25360;DHT22;13311;51.386;0.016;2022-12-28T15:54:20;13.40;99.90
25360;DHT22;13311;51.386;0.016;2022-12-28T15:59:21;13.60;99.90
25360;DHT22;13311;51.386;0.016;2022-12-28T16:04:22;13.60;99.90
25360;DHT22;13311;51.386;0.016;2022-12-28T16:09:22;13.60;99.90
25360;DHT22;13311;51.386;0.016;2022-12-28T16:14:24;13.60;99.90
25360;DHT22;13311;51.386;0.016;2022-12-28T16:19:25;13.60;99.90
25360;DHT22;13311;51.386;0.016;2022-12-28T16:24:26;13.60;99.90
25360;DHT22;13311;51.386;0.016;2022-12-28T16:29:28;13.50;99.90
25360;DHT22;13311;51.386;0.016;2022-12-28T16:34:29;13.60;99.90
25360;DHT22;13311;51.386;0.016;2022-12-28T16:39:31;13.50;99.90
25360;DHT22;13311;51.386;0.016;2022-12-28T16:44:32;13.50;99.90
25360;DHT22;13311;51.386;0.016;2022-12-28T16:49:38;13.60;99.90
25360;DHT22;13311;51.386;0.016;2022-12-28T16:54:39;13.60;99.90
25360;DHT22;13311;51.386;0.016;2022-12-28T16:59:40;13.60;99.90
25360;DHT22;13311;51.386;0.016;2022-12-28T17:04:41;13.60;99.90
25360;DHT22;13311;51.386;0.016;2022-12-28T17:09:43;13.50;99.90
25360;DHT22;13311;51.386;0.016;2022-12-28T17:14:44;13.50;99.90
25360;DHT22;13311;51.386;0.016;2022-12-28T17:19:44;13.50;99.90
25360;DHT22;13311;51.386;0.016;2022-12-28T17:24:45;13.40;99.90
25360;DHT22;13311;51.386;0.016;2022-12-28T17:29:46;13.50;99.90
25360;DHT22;13311;51.386;0.016;2022-12-28T17:34:47;13.50;99.90
25360;DHT22;13311;51.386;0.016;2022-12-28T17:39:48;13.50;99.90
25360;DHT22;13311;51.386;0.016;2022-12-28T17:44:49;13.50;99.90
25360;DHT22;13311;51.386;0.016;2022-12-28T17:49:51;13.50;99.90
25360;DHT22;13311;51.386;0.016;2022-12-28T17:54:51;13.50;99.90
25360;DHT22;13311;51.386;0.016;2022-12-28T17:59:53;13.40;99.90
25360;DHT22;13311;51.386;0.016;2022-12-28T18:04:53;13.40;99.90
25360;DHT22;13311;51.386;0.016;2022-12-28T18:10:00;13.50;99.90
25360;DHT22;13311;51.386;0.016;2022-12-28T18:15:00;13.50;99.90
25360;DHT22;13311;51.386;0.016;2022-12-28T18:20:01;13.50;99.90
25360;DHT22;13311;51.386;0.016;2022-12-28T18:25:03;13.50;99.90
25360;DHT22;13311;51.386;0.016;2022-12-28T18:30:05;13.50;99.90
25360;DHT22;13311;51.386;0.016;2022-12-28T18:35:07;13.50;99.90
25360;DHT22;13311;51.386;0.016;2022-12-28T18:40:09;13.40;99.90
25360;DHT22;13311;51.386;0.016;2022-12-28T18:45:10;13.40;99.90
25360;DHT22;13311;51.386;0.016;2022-12-28T18:50:14;13.20;99.90
25360;DHT22;13311;51.386;0.016;2022-12-28T18:55:15;13.30;99.90
25360;DHT22;13311;51.386;0.016;2022-12-28T19:00:16;13.40;99.90
25360;DHT22;13311;51.386;0.016;2022-12-28T19:05:18;13.40;99.90
25360;DHT22;13311;51.386;0.016;2022-12-28T19:10:19;13.40;99.90
25360;DHT22;13311;51.386;0.016;2022-12-28T19:15:20;13.30;99.90
25360;DHT22;13311;51.386;0.016;2022-12-28T19:20:21;13.20;99.90
25360;DHT22;13311;51.386;0.016;2022-12-28T19:25:24;13.00;99.90
25360;DHT22;13311;51.386;0.016;2022-12-28T19:30:25;13.00;99.90
25360;DHT22;13311;51.386;0.016;2022-12-28T19:35:26;13.00;99.90
25360;DHT22;13311;51.386;0.016;2022-12-28T19:40:26;13.00;99.90
25360;DHT22;13311;51.386;0.016;2022-12-28T19:45:27;12.80;99.90
25360;DHT22;13311;51.386;0.016;2022-12-28T19:50:29;12.80;99.90
25360;DHT22;13311;51.386;0.016;2022-12-28T19:55:30;12.60;99.90
25360;DHT22;13311;51.386;0.016;2022-12-28T20:00:33;12.60;99.90
25360;DHT22;13311;51.386;0.016;2022-12-28T20:05:34;12.50;99.90
25360;DHT22;13311;51.386;0.016;2022-12-28T20:10:35;12.30;99.90
25360;DHT22;13311;51.386;0.016;2022-12-28T20:15:40;12.50;99.90
25360;DHT22;13311;51.386;0.016;2022-12-28T20:20:41;12.50;99.90
25360;DHT22;13311;51.386;0.016;2022-12-28T20:25:52;12.60;99.90
25360;DHT22;13311;51.386;0.016;2022-12-28T20:31:21;12.70;99.90
25360;DHT22;13311;51.386;0.016;2022-12-28T20:36:24;12.80;99.90
25360;DHT22;13311;51.386;0.016;2022-12-28T20:41:27;12.70;99.90
25360;DHT22;13311;51.386;0.016;2022-12-28T20:46:48;12.80;99.90
25360;DHT22;13311;51.386;0.016;2022-12-28T20:51:50;12.80;99.90
25360;DHT22;13311;51.386;0.016;2022-12-28T20:56:51;12.80;99.90
25360;DHT22;13311;51.386;0.016;2022-12-28T21:01:52;12.80;99.90
25360;DHT22;13311;51.386;0.016;2022-12-28T21:06:53;13.00;99.90
25360;DHT22;13311;51.386;0.016;2022-12-28T21:11:54;12.90;99.90
25360;DHT22;13311;51.386;0.016;2022-12-28T21:16:54;13.10;99.90
25360;DHT22;13311;51.386;0.016;2022-12-28T21:21:55;13.20;99.90
25360;DHT22;13311;51.386;0.016;2022-12-28T21:26:56;13.10;99.90
25360;DHT22;13311;51.386;0.016;2022-12-28T21:31:56;13.10;99.90
25360;DHT22;13311;51.386;0.016;2022-12-28T21:36:57;13.00;99.90
25360;DHT22;13311;51.386;0.016;2022-12-28T21:42:18;12.90;99.90
25360;DHT22;13311;51.386;0.016;2022-12-28T21:47:19;12.90;99.90
25360;DHT22;13311;51.386;0.016;2022-12-28T21:52:20;12.90;99.90
25360;DHT22;13311;51.386;0.016;2022-12-28T21:57:21;12.90;99.90
25360;DHT22;13311;51.386;0.016;2022-12-28T22:02:22;12.80;99.90
25360;DHT22;13311;51.386;0.016;2022-12-28T22:07:41;12.80;99.90
25360;DHT22;13311;51.386;0.016;2022-12-28T22:12:42;12.70;99.90
25360;DHT22;13311;51.386;0.016;2022-12-28T22:17:43;12.60;99.90
25360;DHT22;13311;51.386;0.016;2022-12-28T22:22:44;12.80;99.90
25360;DHT22;13311;51.386;0.016;2022-12-28T22:27:44;12.70;99.90
25360;DHT22;13311;51.386;0.016;2022-12-28T22:32:45;12.70;99.90
25360;DHT22;13311;51.386;0.016;2022-12-28T22:37:46;12.80;99.90
25360;DHT22;13311;51.386;0.016;2022-12-28T22:42:48;12.80;99.90
25360;DHT22;13311;51.386;0.016;2022-12-28T22:47:49;12.80;99.90
25360;DHT22;13311;51.386;0.016;2022-12-28T22:52:54;12.80;99.90
25360;DHT22;13311;51.386;0.016;2022-12-28T22:57:56;12.80;99.90
25360;DHT22;13311;51.386;0.016;2022-12-28T23:02:56;12.80;99.90
25360;DHT22;13311;51.386;0.016;2022-12-28T23:07:58;12.70;99.90
25360;DHT22;13311;51.386;0.016;2022-12-28T23:12:59;12.60;99.90
25360;DHT22;13311;51.386;0.016;2022-12-28T23:17:59;12.70;99.90
25360;DHT22;13311;51.386;0.016;2022-12-28T23:23:21;12.60;99.90
25360;DHT22;13311;51.386;0.016;2022-12-28T23:28:40;12.70;99.90
25360;DHT22;13311;51.386;0.016;2022-12-28T23:33:41;12.70;99.90
25360;DHT22;13311;51.386;0.016;2022-12-28T23:38:42;12.60;99.90
25360;DHT22;13311;51.386;0.016;2022-12-28T23:43:42;12.60;99.90
25360;DHT22;13311;51.386;0.016;2022-12-28T23:48:43;12.60;99.90
25360;DHT22;13311;51.386;0.016;2022-12-28T23:53:47;12.60;99.90
25360;DHT22;13311;51.386;0.016;2022-12-28T23:58:51;12.60;99.90
